Windham, NY

6:38 AM EDT on July 28, 2015 (GMT -0400)
Townhouse at Base of Windham Mountain Resort | | Change Station
CLOSE
Current Station
Personal Weather Station
Location: Windham, NY
Elevation: 1640 ft
Nearby Weather Stations

Elev 1640 ft 42.30 °N, 74.26 °W | Updated 7 minutes ago

Overcast
Overcast
59.5 °F
Feels Like 59.5 °F
N
0.0
Wind Variable Wind from SW

Today
High -- | Low -- °F
--% Chance of Precip.
Yesterday
High -- | Low -- °F
Precip. -- in
5:45 AM 8:21 PM
Waxing Gibbous, 88% visible
Pressure 30.02 in
Visibility 0.5 miles
Clouds Mostly Cloudy 300 ft
Mostly Cloudy 12000 ft
Mostly Cloudy 25000 ft
Dew Point 58 °F
Humidity 96%
Rainfall 0.00 in
Snow Depth Not available.
UV 0 out of 12
Pollen 5.60 out of 12
Air Quality Not available.
Flu Activity Not available.
SPECI KALB 281035Z 34005KT 1/2SM R01/P6000FT BCFG BR BKN003 BKN120 BKN250 21/19 A3002 RMK AO2 SFC VIS 1 3/4 VIS 1V3 VIS SW-NE 3/4 BKN003 V SCT BCFG SW-NE T02110194 $

More Conditions Fewer Conditions

Pressure 30.02 in
Visibility 0.5 miles
Clouds Mostly Cloudy 300 ft
Mostly Cloudy 12000 ft
Mostly Cloudy 25000 ft
Dew Point 58 °F
Humidity 96%
Rainfall 0.00 in
Snow Depth Not available.
UV 0 out of 12
Pollen 5.60 out of 12
Air Quality Not available.
Flu Activity Not available.
SPECI KALB 281035Z 34005KT 1/2SM R01/P6000FT BCFG BR BKN003 BKN120 BKN250 21/19 A3002 RMK AO2 SFC VIS 1 3/4 VIS 1V3 VIS SW-NE 3/4 BKN003 V SCT BCFG SW-NE T02110194 $

More Conditions Fewer Conditions

10-Day Weather Forecast

×

Almanac

Astronomy

Jul. 28, 2015 Rise Set
Actual Time
Civil Twilight
Nautical Twilight
Astronomical Twilight
Moon
Length of Visible Light
Length of Day
Tomorrow will be .
, % of the Moon is Illuminated

Today's Extremes

State Highs State Lows

Community

WunderPhotos

Upload Photos

1,841,800 photos uploaded!

WunderBlogs® & News

Nearby

Air Quality

  Air Quality AQ Index Pollutant
Not available.

Snow Depth

Station Depth Elevation

Earthquake Activity

City Distance Mag. Time & Date
Minimum magnitude displayed is 2.5.

Coastal Water Temperatures

Place Temperature

Stations

Nearby Weather Stations

Station Location Temp. Windchill Dew Point Humidity Wind Precip. Elev Updated Type